Time;durP1;ratioP1;P1;durP2;ratioP2;P2;SDS_P1;SDS_P2;PMS_P1;PMS_P2;Temp;Humidity;BMP_temperature;BMP_pressure;BME280_temperature;BME280_humidity;BME280_pressure;Samples;Min_cycle;Max_cycle;Signal;HPM_P1;HPM_P2
2022/05/02 00:02:23;;;;;;;9.70;6.13;;;6.00;99.90;;;;;;5075572;28;20090;-62
2022/05/02 00:04:50;;;;;;;8.93;5.25;;;5.90;99.90;;;;;;5076974;28;20087;-62
2022/05/02 00:07:17;;;;;;;13.70;7.22;;;5.90;99.90;;;;;;5076953;28;20426;-62
2022/05/02 00:09:44;;;;;;;11.60;7.07;;;5.90;99.90;;;;;;5093790;28;20487;-62
2022/05/02 00:12:12;;;;;;;11.23;6.35;;;5.80;99.90;;;;;;5094636;28;20093;-63
2022/05/02 00:14:39;;;;;;;13.05;6.82;;;5.90;99.90;;;;;;5095130;28;20129;-63
2022/05/02 00:17:05;;;;;;;10.38;7.30;;;5.90;99.90;;;;;;5076106;28;20124;-63
2022/05/02 00:19:32;;;;;;;12.38;7.47;;;6.00;99.90;;;;;;5094343;28;20499;-62
2022/05/02 00:21:59;;;;;;;9.40;6.93;;;5.90;99.90;;;;;;5075596;28;20139;-61
2022/05/02 00:24:26;;;;;;;12.35;6.75;;;5.80;99.90;;;;;;5076075;28;20082;-62
2022/05/02 00:26:53;;;;;;;13.10;7.03;;;5.80;99.90;;;;;;5076683;28;20101;-62
2022/05/02 00:29:21;;;;;;;11.90;7.95;;;5.80;99.90;;;;;;5094461;28;20053;-62
2022/05/02 00:31:48;;;;;;;12.60;7.80;;;5.80;99.90;;;;;;5076061;28;20456;-61
2022/05/02 00:34:15;;;;;;;10.82;7.47;;;5.80;99.90;;;;;;5076626;28;20504;-62
2022/05/02 00:36:42;;;;;;;11.93;7.95;;;5.80;99.90;;;;;;5093631;28;20102;-61
2022/05/02 00:39:09;;;;;;;10.43;6.70;;;5.80;99.90;;;;;;5075855;28;20123;-63
2022/05/02 00:41:36;;;;;;;11.15;7.50;;;5.70;99.90;;;;;;5094045;28;20111;-63
2022/05/02 00:44:03;;;;;;;10.85;7.95;;;5.70;99.90;;;;;;5093933;28;20079;-63
2022/05/02 00:46:32;;;;;;;15.05;7.88;;;5.70;99.90;;;;;;5076225;28;20492;-63
2022/05/02 00:48:59;;;;;;;11.55;7.88;;;5.70;99.90;;;;;;5075793;28;20078;-62
2022/05/02 00:51:25;;;;;;;12.23;8.68;;;5.80;99.90;;;;;;5075621;28;20082;-62
2022/05/02 00:53:53;;;;;;;14.77;8.27;;;5.70;99.90;;;;;;5075328;28;20139;-62
2022/05/02 00:56:21;;;;;;;11.68;8.00;;;5.80;99.90;;;;;;5094234;28;20044;-62
2022/05/02 00:58:50;;;;;;;14.30;8.23;;;5.70;99.90;;;;;;5075500;28;20056;-62
2022/05/02 01:01:17;;;;;;;11.75;8.60;;;5.60;99.90;;;;;;5072503;28;20059;-62
2022/05/02 01:03:45;;;;;;;12.52;8.88;;;5.60;99.90;;;;;;5071913;28;20052;-61
2022/05/02 01:08:57;;;;;;;11.88;7.85;;;5.80;99.90;;;;;;5072315;28;20433;-63
2022/05/02 01:11:23;;;;;;;11.68;8.07;;;5.60;99.90;;;;;;5072598;28;20053;-63
2022/05/02 01:13:50;;;;;;;9.68;7.68;;;5.60;99.90;;;;;;5071488;28;20114;-62
2022/05/02 01:16:21;;;;;;;13.10;9.10;;;5.60;99.90;;;;;;5073271;28;20084;-62
2022/05/02 01:18:50;;;;;;;10.88;7.63;;;5.60;99.90;;;;;;5071378;28;20452;-62
2022/05/02 01:21:20;;;;;;;16.42;7.85;;;5.60;99.90;;;;;;5073544;28;20049;-63
2022/05/02 01:23:50;;;;;;;16.00;9.83;;;5.60;99.90;;;;;;5073050;28;20109;-62
2022/05/02 01:26:17;;;;;;;15.55;8.30;;;5.60;99.90;;;;;;5071683;28;20109;-63
2022/05/02 01:28:46;;;;;;;16.48;8.55;;;5.60;99.90;;;;;;5073271;28;20130;-63
2022/05/02 01:31:15;;;;;;;12.40;8.38;;;5.60;99.90;;;;;;5071825;28;20080;-63
2022/05/02 01:33:43;;;;;;;12.48;8.65;;;5.60;99.90;;;;;;5070920;28;20144;-62
2022/05/02 01:36:10;;;;;;;12.60;8.90;;;5.60;99.90;;;;;;5071642;28;20094;-63
2022/05/02 01:38:39;;;;;;;11.90;7.85;;;5.60;99.90;;;;;;5072791;28;20109;-63
2022/05/02 01:41:06;;;;;;;9.82;8.02;;;5.60;99.90;;;;;;5071367;28;20079;-63
2022/05/02 01:43:33;;;;;;;14.10;9.20;;;5.50;99.90;;;;;;5071413;28;20139;-63
2022/05/02 01:46:01;;;;;;;13.73;8.57;;;5.60;99.90;;;;;;5071817;28;20080;-63
2022/05/02 01:48:28;;;;;;;12.57;8.65;;;5.50;99.90;;;;;;5071923;28;20468;-63
2022/05/02 01:50:55;;;;;;;12.98;8.85;;;5.60;99.90;;;;;;5054705;28;20584;-63
2022/05/02 01:53:22;;;;;;;13.48;8.75;;;5.50;99.90;;;;;;5071872;28;20571;-62
2022/05/02 01:55:50;;;;;;;17.42;9.07;;;5.50;99.90;;;;;;5072081;28;20079;-63
2022/05/02 01:58:17;;;;;;;12.52;8.10;;;5.50;99.90;;;;;;5072783;28;20084;-62
2022/05/02 02:00:44;;;;;;;12.20;8.52;;;5.50;99.90;;;;;;5072533;28;20469;-62
2022/05/02 02:03:11;;;;;;;14.57;9.13;;;5.50;99.90;;;;;;5067189;28;20083;-62
2022/05/02 02:05:51;;;;;;;14.88;9.07;;;5.40;99.90;;;;;;5063429;28;20136;-63
2022/05/02 02:08:19;;;;;;;14.10;8.23;;;5.40;99.90;;;;;;5072220;28;20120;-63
2022/05/02 02:10:47;;;;;;;13.50;8.50;;;5.40;99.90;;;;;;5072711;28;20129;-63
2022/05/02 02:13:16;;;;;;;15.00;9.43;;;5.40;99.90;;;;;;5068524;28;20469;-63
2022/05/02 02:15:44;;;;;;;11.40;8.65;;;5.40;99.90;;;;;;5070708;28;20135;-63
2022/05/02 02:18:11;;;;;;;13.90;9.27;;;5.40;99.90;;;;;;5072797;28;20060;-62
2022/05/02 02:20:38;;;;;;;12.82;9.20;;;5.40;99.90;;;;;;5071560;28;20056;-62
2022/05/02 02:23:05;;;;;;;13.55;9.07;;;5.30;99.90;;;;;;5070666;28;20151;-61
2022/05/02 02:25:32;;;;;;;14.75;9.73;;;5.30;99.90;;;;;;5071152;28;20052;-63
2022/05/02 02:28:01;;;;;;;17.13;8.80;;;5.30;99.90;;;;;;5072694;28;20048;-63
2022/05/02 02:30:29;;;;;;;13.15;9.00;;;5.30;99.90;;;;;;5072098;28;20048;-62
2022/05/02 02:32:56;;;;;;;15.55;9.20;;;5.30;99.90;;;;;;5072461;28;20048;-63
2022/05/02 02:35:23;;;;;;;16.13;9.43;;;5.20;99.90;;;;;;5072407;28;20094;-62
2022/05/02 02:37:51;;;;;;;14.48;9.57;;;5.20;99.90;;;;;;5071482;28;20475;-63
2022/05/02 02:40:19;;;;;;;13.02;8.93;;;5.20;99.90;;;;;;5071272;28;20095;-62
2022/05/02 02:42:46;;;;;;;12.15;9.23;;;5.20;99.90;;;;;;5071091;28;20091;-62
2022/05/02 02:45:14;;;;;;;16.52;10.02;;;5.20;99.90;;;;;;5073868;28;20135;-63
2022/05/02 02:47:42;;;;;;;17.40;9.45;;;5.10;99.90;;;;;;5075176;28;20468;-63
2022/05/02 02:50:10;;;;;;;14.40;9.27;;;5.10;99.90;;;;;;5054900;28;20506;-63
2022/05/02 02:52:37;;;;;;;13.52;8.63;;;5.10;99.90;;;;;;5057363;28;20531;-62
2022/05/02 02:55:04;;;;;;;14.40;9.48;;;5.10;99.90;;;;;;5074873;28;20140;-63
2022/05/02 02:57:31;;;;;;;13.30;10.18;;;5.00;99.90;;;;;;5074315;28;20132;-62
2022/05/02 02:59:58;;;;;;;12.57;9.45;;;5.00;99.90;;;;;;5075587;28;20053;-62
2022/05/02 03:02:25;;;;;;;12.85;9.55;;;5.00;99.90;;;;;;5074466;28;20053;-63
2022/05/02 03:07:37;;;;;;;12.65;9.77;;;4.90;99.90;;;;;;5074663;28;20048;-63
2022/05/02 03:10:05;;;;;;;15.40;9.50;;;4.90;99.90;;;;;;5074771;28;20472;-62
2022/05/02 03:12:32;;;;;;;11.88;8.88;;;4.90;99.90;;;;;;5075090;28;20131;-63
2022/05/02 03:14:59;;;;;;;16.98;8.77;;;4.90;99.90;;;;;;5074284;28;20072;-63
2022/05/02 03:17:25;;;;;;;17.25;9.43;;;4.90;99.90;;;;;;5074528;28;20127;-62
2022/05/02 03:19:54;;;;;;;12.20;8.68;;;4.80;99.90;;;;;;5074765;28;20052;-63
2022/05/02 03:22:20;;;;;;;15.38;9.88;;;4.80;99.90;;;;;;5075490;28;20076;-63
2022/05/02 03:24:47;;;;;;;14.05;9.85;;;4.70;99.90;;;;;;5074230;28;20091;-63
2022/05/02 03:27:14;;;;;;;16.52;9.90;;;4.70;99.90;;;;;;5073374;28;20143;-63
2022/05/02 03:29:41;;;;;;;18.00;10.70;;;4.70;99.90;;;;;;5073890;28;20087;-64
2022/05/02 03:32:08;;;;;;;16.25;11.73;;;4.60;99.90;;;;;;5075259;28;20102;-62
2022/05/02 03:34:35;;;;;;;14.50;9.73;;;4.60;99.90;;;;;;5074620;28;20500;-62
2022/05/02 03:37:03;;;;;;;14.15;9.43;;;4.60;99.90;;;;;;5075421;28;20123;-62
2022/05/02 03:39:30;;;;;;;14.73;9.90;;;4.60;99.90;;;;;;5062489;28;20058;-63
2022/05/02 03:41:57;;;;;;;14.68;9.77;;;4.60;99.90;;;;;;5054892;28;20099;-63
2022/05/02 03:44:24;;;;;;;16.88;9.23;;;4.50;99.90;;;;;;5055255;28;20523;-62
2022/05/02 03:46:51;;;;;;;14.85;9.40;;;4.50;99.90;;;;;;5053212;28;20041;-62
2022/05/02 03:49:18;;;;;;;14.20;9.73;;;4.50;99.90;;;;;;5065959;28;20098;-63
2022/05/02 03:51:44;;;;;;;13.30;8.75;;;4.50;99.90;;;;;;5075025;28;20056;-62
2022/05/02 03:54:13;;;;;;;16.55;10.10;;;4.50;99.90;;;;;;5073002;28;20098;-62
2022/05/02 03:56:39;;;;;;;12.35;8.68;;;4.50;99.90;;;;;;5073448;28;20147;-62
2022/05/02 03:59:06;;;;;;;16.58;10.55;;;4.40;99.90;;;;;;5074826;28;20098;-62
2022/05/02 04:01:36;;;;;;;12.55;9.23;;;4.40;99.90;;;;;;5072740;28;20053;-63
2022/05/02 04:04:03;;;;;;;13.57;9.60;;;4.50;99.90;;;;;;5074348;28;20049;-63
2022/05/02 04:06:30;;;;;;;16.23;10.57;;;4.50;99.90;;;;;;5073167;28;20087;-62
2022/05/02 04:08:57;;;;;;;13.40;9.13;;;4.50;99.90;;;;;;5073919;28;20056;-62
2022/05/02 04:11:25;;;;;;;17.77;10.50;;;4.50;99.90;;;;;;5074987;28;20123;-61
2022/05/02 04:13:52;;;;;;;13.13;9.80;;;4.50;99.90;;;;;;5073080;28;20135;-63
2022/05/02 04:16:19;;;;;;;14.32;10.38;;;4.50;99.90;;;;;;5072297;28;20094;-63
2022/05/02 04:18:46;;;;;;;13.82;9.40;;;4.40;99.90;;;;;;5074704;28;20385;-64
2022/05/02 04:21:13;;;;;;;15.65;10.00;;;4.40;99.90;;;;;;5074471;28;20093;-64
2022/05/02 04:23:40;;;;;;;15.50;9.82;;;4.40;99.90;;;;;;5073109;28;20574;-63
2022/05/02 04:26:07;;;;;;;16.58;10.20;;;4.40;99.90;;;;;;5073057;28;20144;-63
2022/05/02 04:28:36;;;;;;;16.73;10.38;;;4.50;99.90;;;;;;5073649;28;20084;-63
2022/05/02 04:31:02;;;;;;;15.27;9.77;;;4.50;99.90;;;;;;5074360;28;20098;-65
2022/05/02 04:33:29;;;;;;;15.52;10.02;;;4.50;99.90;;;;;;5074238;28;20124;-63
2022/05/02 04:35:56;;;;;;;14.68;9.65;;;4.40;99.90;;;;;;5073078;28;20075;-62
2022/05/02 04:38:24;;;;;;;12.85;9.73;;;4.50;99.90;;;;;;5072829;28;20127;-63
2022/05/02 04:40:50;;;;;;;13.95;9.65;;;4.50;99.90;;;;;;5072713;28;20048;-63
2022/05/02 04:43:17;;;;;;;12.43;8.48;;;4.50;99.90;;;;;;5073200;28;20113;-64
2022/05/02 04:45:45;;;;;;;10.20;8.20;;;4.50;99.90;;;;;;5073838;28;20052;-62
2022/05/02 04:48:12;;;;;;;12.15;7.80;;;4.40;99.90;;;;;;5070908;28;20076;-63
2022/05/02 04:50:39;;;;;;;11.45;7.80;;;4.40;99.90;;;;;;5055478;28;20144;-63
2022/05/02 04:53:06;;;;;;;9.95;7.97;;;4.40;99.90;;;;;;5055788;28;20082;-62
2022/05/02 04:55:33;;;;;;;10.63;8.18;;;4.40;99.90;;;;;;5073500;28;20075;-63
2022/05/02 04:57:59;;;;;;;11.18;8.43;;;4.40;99.90;;;;;;5072852;28;20131;-63
2022/05/02 05:00:27;;;;;;;13.77;9.55;;;4.40;99.90;;;;;;5055859;28;20082;-63
2022/05/02 05:02:55;;;;;;;11.55;8.38;;;4.50;99.90;;;;;;5073328;28;20053;-62
2022/05/02 05:05:21;;;;;;;13.07;9.27;;;4.50;99.90;;;;;;5055056;28;20133;-63
2022/05/02 05:07:48;;;;;;;12.60;9.57;;;4.60;99.90;;;;;;5064994;28;20084;-63
2022/05/02 05:10:16;;;;;;;12.63;9.50;;;4.60;99.90;;;;;;5073410;28;20136;-62
2022/05/02 05:12:58;;;;;;;13.38;9.68;;;4.70;99.90;;;;;;5072835;28;20045;-62
2022/05/02 05:18:37;;;;;;;14.02;9.65;;;4.90;99.90;;;;;;5072647;28;20048;-62
2022/05/02 05:21:06;;;;;;;15.00;9.95;;;5.10;99.90;;;;;;5072207;28;20458;-63
2022/05/02 05:24:02;;;;;;;13.45;9.30;;;5.30;99.90;;;;;;5071458;28;20052;-63
2022/05/02 05:26:44;;;;;;;14.00;10.35;;;5.40;99.90;;;;;;5072677;28;20469;-63
2022/05/02 05:29:29;;;;;;;16.05;10.60;;;5.50;99.90;;;;;;5071959;28;20056;-62
2022/05/02 05:32:14;;;;;;;17.13;11.52;;;5.70;99.90;;;;;;5056875;28;20076;-63
2022/05/02 05:34:51;;;;;;;18.58;11.23;;;5.80;99.90;;;;;;5052198;28;20121;-62
2022/05/02 05:37:45;;;;;;;16.00;12.07;;;5.90;99.90;;;;;;5052969;28;20481;-63
2022/05/02 05:40:19;;;;;;;18.17;11.68;;;6.10;99.90;;;;;;5051447;28;20096;-63
2022/05/02 05:43:09;;;;;;;16.20;11.30;;;6.30;99.90;;;;;;5052849;28;20136;-63
2022/05/02 05:45:48;;;;;;;18.73;12.63;;;6.50;99.90;;;;;;5059513;28;20098;-63
2022/05/02 05:48:27;;;;;;;18.95;11.10;;;6.60;99.90;;;;;;5071112;28;20131;-63
2022/05/02 05:51:04;;;;;;;16.63;11.88;;;6.90;99.90;;;;;;5073010;28;20076;-63
2022/05/02 05:53:41;;;;;;;16.45;11.63;;;7.10;99.90;;;;;;5071800;28;20127;-63
2022/05/02 05:56:31;;;;;;;15.75;10.48;;;7.30;99.90;;;;;;5071617;28;20137;-62
2022/05/02 05:59:07;;;;;;;19.00;11.70;;;7.60;99.90;;;;;;5069642;28;20124;-63
2022/05/02 06:01:46;;;;;;;18.20;11.73;;;7.90;99.90;;;;;;5062664;28;20059;-62
2022/05/02 06:04:16;;;;;;;18.85;11.18;;;8.20;99.90;;;;;;5055625;28;20064;-63
2022/05/02 06:06:47;;;;;;;18.13;11.40;;;8.50;99.90;;;;;;5061917;28;20080;-61
2022/05/02 06:09:16;;;;;;;20.33;12.05;;;8.90;99.90;;;;;;5056237;28;20056;-62
2022/05/02 06:11:46;;;;;;;17.98;11.40;;;9.10;99.90;;;;;;5057090;28;20480;-64
2022/05/02 06:14:15;;;;;;;19.67;12.30;;;9.40;99.90;;;;;;5057151;28;20045;-61
2022/05/02 06:19:30;;;;;;;16.38;10.55;;;9.90;99.90;;;;;;5055765;28;20040;-62
2022/05/02 06:22:03;;;;;;;14.32;10.40;;;10.20;99.90;;;;;;5061857;28;20103;-62
2022/05/02 06:24:33;;;;;;;13.98;9.75;;;10.50;99.90;;;;;;5061156;28;20044;-62
2022/05/02 06:27:03;;;;;;;16.25;9.82;;;10.70;99.90;;;;;;5059628;28;20460;-63
2022/05/02 06:29:31;;;;;;;14.98;10.65;;;11.00;99.90;;;;;;5055661;28;20048;-62
2022/05/02 06:32:01;;;;;;;17.15;11.18;;;11.50;99.90;;;;;;5070149;28;20131;-63
2022/05/02 06:34:29;;;;;;;17.75;12.02;;;11.90;99.90;;;;;;5058639;28;20049;-64
2022/05/02 06:37:09;;;;;;;16.10;11.27;;;12.50;99.90;;;;;;5062675;28;20080;-63
2022/05/02 06:39:51;;;;;;;17.33;11.18;;;12.90;99.90;;;;;;5061538;28;20064;-62
2022/05/02 06:42:25;;;;;;;15.43;10.43;;;13.40;99.90;;;;;;5060814;28;20142;-62
2022/05/02 06:45:07;;;;;;;12.73;8.55;;;14.00;99.90;;;;;;5056333;28;20055;-63
2022/05/02 06:47:46;;;;;;;13.63;7.95;;;14.40;99.90;;;;;;5068826;28;20076;-62
2022/05/02 06:50:17;;;;;;;15.25;8.70;;;15.00;99.90;;;;;;5061588;28;20536;-63
2022/05/02 06:52:56;;;;;;;16.42;9.32;;;15.50;99.90;;;;;;5059399;28;20546;-63
2022/05/02 06:55:34;;;;;;;13.80;9.65;;;15.90;99.90;;;;;;5064516;28;20120;-63
2022/05/02 06:58:12;;;;;;;12.15;9.15;;;16.30;99.00;;;;;;5058570;28;20048;-62
2022/05/02 07:00:48;;;;;;;10.10;7.68;;;16.50;97.80;;;;;;5056111;28;20068;-63
2022/05/02 07:03:45;;;;;;;9.50;7.15;;;16.90;98.00;;;;;;5060012;28;20102;-63
2022/05/02 07:06:21;;;;;;;11.40;7.43;;;17.20;96.30;;;;;;5057287;28;20040;-63
2022/05/02 07:08:56;;;;;;;13.48;7.85;;;17.50;95.10;;;;;;5059307;28;20091;-63
2022/05/02 07:11:27;;;;;;;11.48;7.75;;;17.70;93.30;;;;;;5063377;28;20447;-65
2022/05/02 07:14:03;;;;;;;14.38;8.13;;;18.00;94.10;;;;;;5067322;28;20084;-64
2022/05/02 07:16:32;;;;;;;7.63;6.65;;;18.00;88.80;;;;;;5058673;28;20041;-63
2022/05/02 07:19:17;;;;;;;9.32;6.38;;;18.50;90.90;;;;;;5064552;28;20057;-62
2022/05/02 07:21:50;;;;;;;10.73;6.25;;;18.70;83.80;;;;;;5058472;28;20092;-62
2022/05/02 07:24:39;;;;;;;12.25;6.80;;;18.70;81.90;;;;;;5059072;28;20088;-63
2022/05/02 07:27:14;;;;;;;10.75;6.90;;;18.80;82.50;;;;;;5059603;28;20128;-63
2022/05/02 07:29:45;;;;;;;10.80;7.82;;;19.10;84.40;;;;;;5055669;28;20089;-63
2022/05/02 07:32:12;;;;;;;;;;;19.20;84.70;;;;;;5055298;28;20084;-63
2022/05/02 07:34:41;;;;;;;19.10;8.73;;;19.10;78.70;;;;;;5055492;28;19920;-64
2022/05/02 07:37:10;;;;;;;7.10;6.00;;;19.40;84.50;;;;;;5057095;28;20053;-62
2022/05/02 07:39:41;;;;;;;9.30;5.80;;;19.60;82.50;;;;;;5059935;28;20436;-62
2022/05/02 07:42:11;;;;;;;11.48;5.93;;;19.70;77.60;;;;;;5060365;28;20565;-63
2022/05/02 07:44:39;;;;;;;10.23;6.05;;;19.90;77.30;;;;;;5059239;28;20503;-63
2022/05/02 07:47:10;;;;;;;11.15;5.90;;;20.00;77.40;;;;;;5061655;28;20146;-64
2022/05/02 07:49:39;;;;;;;9.13;5.78;;;20.00;77.20;;;;;;5060079;28;20455;-63
2022/05/02 07:52:09;;;;;;;8.80;5.50;;;20.20;76.60;;;;;;5032699;28;20052;-63
2022/05/02 07:54:41;;;;;;;9.98;5.53;;;20.40;75.80;;;;;;5064604;28;20166;-64
2022/05/02 07:57:09;;;;;;;7.43;5.10;;;20.60;74.90;;;;;;5073675;28;20087;-63
2022/05/02 07:59:39;;;;;;;5.70;4.45;;;20.70;74.40;;;;;;5072435;28;20503;-66
2022/05/02 08:02:07;;;;;;;8.73;6.03;;;20.90;74.10;;;;;;5073292;28;20479;-62
2022/05/02 08:04:36;;;;;;;9.35;5.22;;;20.90;72.70;;;;;;5074021;28;20092;-63
2022/05/02 08:07:09;;;;;;;8.35;4.30;;;20.90;71.70;;;;;;5071700;28;20084;-63
2022/05/02 08:10:03;;;;;;;7.57;4.32;;;21.00;71.50;;;;;;5071742;28;20050;-63
2022/05/02 08:12:36;;;;;;;6.35;4.38;;;21.00;69.10;;;;;;5071815;28;20079;-63
2022/05/02 08:15:08;;;;;;;8.85;5.07;;;21.60;69.30;;;;;;5072736;28;20055;-64
2022/05/02 08:17:59;;;;;;;5.65;4.03;;;21.80;69.40;;;;;;5070744;28;20495;-64
2022/05/02 08:20:33;;;;;;;9.57;4.70;;;21.60;67.40;;;;;;5071614;28;20132;-63
2022/05/02 08:29:23;;;;;;;6.65;4.68;;;22.30;67.50;;;;;;5062588;28;20040;-63
2022/05/02 08:31:58;;;;;;;6.68;4.22;;;22.30;65.00;;;;;;5064878;28;20380;-64
2022/05/02 08:34:32;;;;;;;6.22;4.15;;;22.40;65.80;;;;;;5072918;28;20475;-63
2022/05/02 08:37:13;;;;;;;5.60;4.07;;;22.50;64.70;;;;;;5072026;28;20139;-63
2022/05/02 08:39:52;;;;;;;7.40;4.78;;;22.50;63.20;;;;;;5070419;28;20106;-63
2022/05/02 08:42:55;;;;;;;9.03;4.97;;;22.70;62.90;;;;;;5069239;28;20090;-64
2022/05/02 08:45:38;;;;;;;8.80;4.47;;;22.70;62.20;;;;;;5070366;28;20845;-63
2022/05/02 08:48:41;;;;;;;8.60;4.32;;;23.00;62.90;;;;;;5071617;28;20068;-63
2022/05/02 08:51:46;;;;;;;13.55;4.88;;;23.30;60.80;;;;;;5063090;28;20052;-64
2022/05/02 08:54:53;;;;;;;7.88;5.15;;;23.30;62.40;;;;;;5069302;28;20106;-64
2022/05/02 08:57:50;;;;;;;6.07;4.47;;;23.40;60.30;;;;;;5047265;28;20098;-65
2022/05/02 09:00:28;;;;;;;5.03;3.88;;;23.60;60.50;;;;;;5067471;28;20049;-64
2022/05/02 09:03:37;;;;;;;6.95;4.90;;;23.40;60.20;;;;;;5070443;28;20096;-64
2022/05/02 09:06:38;;;;;;;7.60;5.00;;;23.00;59.40;;;;;;5070402;28;20483;-63
2022/05/02 09:09:25;;;;;;;7.00;4.78;;;23.00;58.00;;;;;;5061371;28;20052;-64
2022/05/02 09:12:11;;;;;;;8.95;4.32;;;23.20;58.50;;;;;;5066832;28;20501;-64
2022/05/02 09:14:59;;;;;;;5.65;4.63;;;23.50;58.60;;;;;;5068140;28;20092;-64
2022/05/02 09:17:59;;;;;;;7.05;4.00;;;23.30;58.00;;;;;;5067792;28;20063;-63
2022/05/02 09:20:48;;;;;;;5.35;4.20;;;23.60;57.80;;;;;;5066447;28;20628;-64
2022/05/02 09:23:52;;;;;;;4.47;3.70;;;23.50;59.00;;;;;;5068931;28;20049;-64
2022/05/02 09:27:02;;;;;;;6.72;4.55;;;23.70;57.70;;;;;;5070276;28;20071;-64
2022/05/02 09:30:26;;;;;;;5.70;4.35;;;23.30;58.70;;;;;;5019340;28;20481;-65
2022/05/02 09:33:26;;;;;;;5.28;4.00;;;23.30;58.50;;;;;;5069778;28;20492;-64
2022/05/02 09:35:54;;;;;;;7.97;4.60;;;23.10;58.80;;;;;;5068141;28;20045;-64
2022/05/02 09:38:26;;;;;;;5.97;3.90;;;23.00;59.20;;;;;;5067914;28;20070;-64
2022/05/02 09:40:59;;;;;;;5.80;4.00;;;23.70;58.10;;;;;;5070633;28;20517;-64
2022/05/02 09:49:57;;;;;;;7.28;4.03;;;24.00;56.00;;;;;;5065207;28;20057;-65
2022/05/02 09:52:30;;;;;;;7.07;4.95;;;24.70;56.90;;;;;;5062278;28;20091;-65
2022/05/02 09:58:31;;;;;;;6.60;4.38;;;24.90;54.90;;;;;;4973390;28;20051;-64
2022/05/02 10:03:32;;;;;;;8.82;4.47;;;25.00;55.80;;;;;;5103483;27;20119;-64
2022/05/02 10:06:05;;;;;;;5.55;3.95;;;25.00;55.20;;;;;;5064087;28;20094;-64
2022/05/02 10:09:00;;;;;;;6.70;4.90;;;25.40;55.70;;;;;;5067783;28;20480;-65
2022/05/02 10:11:54;;;;;;;6.25;4.15;;;25.40;53.90;;;;;;5045727;28;20426;-64
2022/05/02 10:14:38;;;;;;;5.45;4.40;;;25.90;54.30;;;;;;5050069;28;20142;-64
2022/05/02 10:17:08;;;;;;;6.13;3.35;;;26.10;54.60;;;;;;5074004;28;20099;-64
2022/05/02 10:20:05;;;;;;;6.30;4.30;;;26.20;55.10;;;;;;5055564;28;20126;-63
2022/05/02 10:22:47;;;;;;;6.45;4.22;;;26.60;54.40;;;;;;5070577;28;20177;-66
2022/05/02 10:25:20;;;;;;;5.07;3.83;;;26.70;54.80;;;;;;5067607;28;20523;-65
2022/05/02 10:28:08;;;;;;;6.43;4.32;;;26.80;54.40;;;;;;5056924;28;20088;-65
2022/05/02 10:30:43;;;;;;;5.95;3.88;;;27.10;53.10;;;;;;5059131;28;20075;-65
2022/05/02 10:33:14;;;;;;;6.43;4.22;;;26.80;54.20;;;;;;5068825;28;20051;-65
2022/05/02 10:35:46;;;;;;;4.05;3.22;;;26.50;53.80;;;;;;5049409;28;20077;-65
2022/05/02 10:38:21;;;;;;;7.15;4.07;;;26.70;54.10;;;;;;5067793;28;20049;-64
2022/05/02 10:40:51;;;;;;;5.53;4.25;;;26.90;53.80;;;;;;5067924;28;20049;-65
2022/05/02 10:43:24;;;;;;;4.25;3.50;;;26.80;54.10;;;;;;5084766;28;20071;-65
2022/05/02 10:45:51;;;;;;;6.13;4.72;;;26.90;52.80;;;;;;5083401;28;20114;-65
2022/05/02 10:48:28;;;;;;;5.10;4.25;;;26.90;53.00;;;;;;5082133;28;20149;-64
2022/05/02 10:51:06;;;;;;;6.20;4.20;;;27.00;53.90;;;;;;5053443;28;20049;-65
2022/05/02 10:53:56;;;;;;;6.00;4.20;;;26.80;53.60;;;;;;5067614;28;20051;-65
2022/05/02 10:56:29;;;;;;;6.65;4.15;;;26.70;52.80;;;;;;5066886;28;20130;-64
2022/05/02 10:58:59;;;;;;;5.70;4.22;;;26.30;53.00;;;;;;5061684;28;20052;-65
2022/05/02 11:02:04;;;;;;;9.82;3.97;;;26.00;53.50;;;;;;5049052;28;20095;-65
2022/05/02 11:04:48;;;;;;;3.53;3.13;;;26.00;52.60;;;;;;5024639;28;20088;-65
2022/05/02 11:07:27;;;;;;;6.22;3.58;;;25.60;52.80;;;;;;5049299;28;20064;-65
2022/05/02 11:10:02;;;;;;;5.85;4.30;;;25.40;53.40;;;;;;5066599;28;20057;-66
2022/05/02 11:12:31;;;;;;;5.13;4.15;;;25.50;52.80;;;;;;5071052;28;20076;-65
2022/05/02 11:15:05;;;;;;;6.65;4.30;;;25.70;52.70;;;;;;5062384;28;20416;-64
2022/05/02 11:17:48;;;;;;;5.35;3.20;;;26.00;52.40;;;;;;5051957;28;20481;-65
2022/05/02 11:23:31;;;;;;;5.88;3.30;;;26.60;52.50;;;;;;5035708;28;20049;-64
2022/05/02 11:26:11;;;;;;;5.30;3.47;;;27.10;51.20;;;;;;5042116;28;20055;-65
2022/05/02 11:28:49;;;;;;;5.45;3.90;;;27.30;51.00;;;;;;5042708;28;20052;-65
2022/05/02 11:31:22;;;;;;;5.38;3.42;;;27.60;50.50;;;;;;5053016;28;20053;-64
2022/05/02 11:33:57;;;;;;;7.88;3.97;;;27.10;50.70;;;;;;5043690;28;20118;-65
2022/05/02 11:36:26;;;;;;;4.25;3.80;;;26.80;50.90;;;;;;5063383;28;20536;-65
2022/05/02 11:39:02;;;;;;;4.47;3.67;;;26.70;51.20;;;;;;5065010;28;20094;-64
2022/05/02 11:41:31;;;;;;;6.55;3.92;;;26.50;50.50;;;;;;5041377;28;20516;-64
2022/05/02 11:44:08;;;;;;;4.60;3.40;;;26.50;50.70;;;;;;5036747;28;20972;-65
2022/05/02 11:46:49;;;;;;;4.45;3.15;;;26.70;50.00;;;;;;5048062;28;20045;-63
2022/05/02 11:49:31;;;;;;;7.65;3.15;;;26.70;51.10;;;;;;5058731;28;20500;-64
2022/05/02 11:52:01;;;;;;;5.22;2.90;;;26.90;51.10;;;;;;5048858;28;20052;-65
2022/05/02 11:54:39;;;;;;;4.18;2.75;;;27.20;51.40;;;;;;5064791;28;20084;-64
2022/05/02 11:57:14;;;;;;;3.50;2.80;;;27.50;50.70;;;;;;5047672;28;20599;-64
2022/05/02 11:59:52;;;;;;;3.50;2.78;;;27.50;50.90;;;;;;5059197;28;20127;-64
2022/05/02 12:02:32;;;;;;;3.10;2.38;;;27.30;49.70;;;;;;5052558;28;20522;-64
2022/05/02 12:05:05;;;;;;;3.78;3.15;;;27.50;49.10;;;;;;5052884;28;20412;-65
2022/05/02 12:07:33;;;;;;;4.78;3.35;;;27.50;49.80;;;;;;5070342;28;20110;-64
2022/05/02 12:10:08;;;;;;;5.95;3.13;;;26.50;50.50;;;;;;5054662;28;20052;-64
2022/05/02 12:12:36;;;;;;;6.65;2.92;;;26.60;53.60;;;;;;5072279;28;20484;-64
2022/05/02 12:15:08;;;;;;;5.30;3.00;;;27.00;54.30;;;;;;5039904;28;20045;-64
2022/05/02 12:17:52;;;;;;;5.13;3.25;;;27.40;53.90;;;;;;5052437;28;20318;-65
2022/05/02 12:20:31;;;;;;;4.63;3.47;;;27.70;53.60;;;;;;5042384;28;20414;-65
2022/05/02 12:23:00;;;;;;;;;;;27.30;53.30;;;;;;5064398;28;20136;-65
2022/05/02 12:25:30;;;;;;;5.22;2.80;;;27.30;53.20;;;;;;5052652;28;19921;-65
2022/05/02 12:27:58;;;;;;;4.20;2.83;;;27.30;53.40;;;;;;5052452;28;20529;-64
2022/05/02 12:30:27;;;;;;;5.90;3.25;;;27.30;54.10;;;;;;5034801;28;20049;-66
2022/05/02 12:32:59;;;;;;;6.22;2.95;;;27.20;53.90;;;;;;5038882;28;20511;-64
2022/05/02 12:35:34;;;;;;;5.10;2.75;;;27.40;53.50;;;;;;5051543;28;20083;-64
2022/05/02 12:38:11;;;;;;;3.92;2.97;;;27.70;53.40;;;;;;5042170;28;20148;-65
2022/05/02 12:40:41;;;;;;;4.28;3.10;;;28.10;52.40;;;;;;5034577;28;20506;-64
2022/05/02 12:43:11;;;;;;;5.93;3.30;;;28.40;53.10;;;;;;5050785;28;20045;-64
2022/05/02 12:45:46;;;;;;;5.95;3.30;;;27.80;53.60;;;;;;5054524;28;20111;-65
2022/05/02 12:48:22;;;;;;;3.58;2.90;;;27.80;53.60;;;;;;5070128;28;20173;-64
2022/05/02 12:50:51;;;;;;;5.75;3.28;;;27.80;54.00;;;;;;5054576;28;20071;-63
2022/05/02 12:54:09;;;;;;;4.57;3.42;;;28.10;53.50;;;;;;5034375;28;20045;-64
2022/05/02 12:56:13;;;;;;;5.60;3.72;;;28.20;53.40;;;;;;5053013;28;20059;-64
2022/05/02 13:01:31;;;;;;;4.95;3.40;;;27.30;53.30;;;;;;5052456;28;20505;-64
2022/05/02 13:04:00;;;;;;;4.78;3.17;;;27.40;53.40;;;;;;5033044;28;20085;-65
2022/05/02 13:06:27;;;;;;;3.85;3.03;;;28.00;53.20;;;;;;5051946;28;20400;-64
2022/05/02 13:09:12;;;;;;;19.17;3.40;;;27.90;52.90;;;;;;5054428;28;20073;-64
2022/05/02 13:11:40;;;;;;;4.32;3.40;;;28.30;53.60;;;;;;5070556;28;20127;-64
2022/05/02 13:14:09;;;;;;;4.63;4.07;;;28.20;53.70;;;;;;5071413;28;20129;-64
2022/05/02 13:16:44;;;;;;;4.30;3.40;;;27.80;53.70;;;;;;5071294;28;20106;-65
2022/05/02 13:19:11;;;;;;;4.97;3.38;;;27.90;53.80;;;;;;5071067;28;20044;-64
2022/05/02 13:21:39;;;;;;;5.30;3.13;;;28.20;54.30;;;;;;5071345;28;20052;-65
2022/05/02 13:24:09;;;;;;;7.65;3.50;;;28.40;54.00;;;;;;5034211;28;20457;-65
2022/05/02 13:26:57;;;;;;;5.80;3.50;;;28.50;53.30;;;;;;5037769;28;20168;-65
2022/05/02 13:29:47;;;;;;;7.13;3.20;;;28.20;53.70;;;;;;5071663;28;20087;-65
2022/05/02 13:32:22;;;;;;;4.50;3.10;;;28.80;53.80;;;;;;5052133;28;20049;-65
2022/05/02 13:35:03;;;;;;;5.72;2.58;;;29.10;53.20;;;;;;5051816;28;20480;-65
2022/05/02 13:37:36;;;;;;;7.53;2.88;;;29.20;52.60;;;;;;5052715;28;20539;-64
2022/05/02 13:40:08;;;;;;;6.70;3.63;;;29.20;52.60;;;;;;5071020;28;20439;-64
2022/05/02 13:42:43;;;;;;;6.93;4.00;;;29.10;52.30;;;;;;5053183;28;20500;-63
2022/05/02 13:45:22;;;;;;;6.13;3.25;;;28.50;52.60;;;;;;5052558;28;20102;-65
2022/05/02 13:47:53;;;;;;;7.60;3.70;;;28.40;52.50;;;;;;5047880;28;20055;-63
2022/05/02 13:50:26;;;;;;;5.38;3.30;;;28.10;52.60;;;;;;5056517;28;20055;-64
2022/05/02 13:53:01;;;;;;;5.85;3.13;;;28.50;53.00;;;;;;5033252;28;20431;-64
2022/05/02 13:55:31;;;;;;;4.07;2.88;;;28.40;53.20;;;;;;5051105;28;20557;-64